sensor_id;sensor_type;location;lat;lon;timestamp;pressure;altitude;pressure_sealevel;temperature;humidity
14253;BME280;7210;51.502;10.722;2023-01-28T00:01:57;100616.97;;;0.53;98.85
14253;BME280;7210;51.502;10.722;2023-01-28T00:04:25;100612.03;;;0.50;98.59
14253;BME280;7210;51.502;10.722;2023-01-28T00:07:04;100624.50;;;0.46;99.07
14253;BME280;7210;51.502;10.722;2023-01-28T00:09:39;100627.81;;;0.39;99.33
14253;BME280;7210;51.502;10.722;2023-01-28T00:12:11;100627.25;;;0.35;99.67
14253;BME280;7210;51.502;10.722;2023-01-28T00:14:43;100639.84;;;0.30;99.93
14253;BME280;7210;51.502;10.722;2023-01-28T00:17:15;100644.59;;;0.25;99.51
14253;BME280;7210;51.502;10.722;2023-01-28T00:19:50;100641.19;;;0.25;99.82
14253;BME280;7210;51.502;10.722;2023-01-28T00:22:19;100644.06;;;0.22;100.00
14253;BME280;7210;51.502;10.722;2023-01-28T00:25:01;100647.06;;;0.17;100.00
14253;BME280;7210;51.502;10.722;2023-01-28T00:27:37;100642.66;;;0.08;100.00
14253;BME280;7210;51.502;10.722;2023-01-28T00:30:08;100654.16;;;0.06;100.00
14253;BME280;7210;51.502;10.722;2023-01-28T00:32:41;100648.16;;;0.05;100.00
14253;BME280;7210;51.502;10.722;2023-01-28T00:35:12;100656.63;;;0.07;100.00
14253;BME280;7210;51.502;10.722;2023-01-28T00:37:44;100667.44;;;0.12;100.00
14253;BME280;7210;51.502;10.722;2023-01-28T00:40:16;100672.09;;;0.18;100.00
14253;BME280;7210;51.502;10.722;2023-01-28T00:42:47;100682.09;;;0.23;100.00
14253;BME280;7210;51.502;10.722;2023-01-28T00:45:16;100679.38;;;0.24;100.00
14253;BME280;7210;51.502;10.722;2023-01-28T00:47:50;100663.47;;;0.08;100.00
14253;BME280;7210;51.502;10.722;2023-01-28T00:50:22;100673.59;;;0.11;100.00
14253;BME280;7210;51.502;10.722;2023-01-28T00:52:58;100689.44;;;0.08;100.00
14253;BME280;7210;51.502;10.722;2023-01-28T00:55:30;100687.81;;;0.07;100.00
14253;BME280;7210;51.502;10.722;2023-01-28T00:58:02;100688.78;;;0.06;100.00
14253;BME280;7210;51.502;10.722;2023-01-28T01:00:36;100681.94;;;0.05;100.00
14253;BME280;7210;51.502;10.722;2023-01-28T01:03:05;100687.81;;;0.07;100.00
14253;BME280;7210;51.502;10.722;2023-01-28T01:05:50;100692.72;;;0.10;100.00
14253;BME280;7210;51.502;10.722;2023-01-28T01:08:20;100696.28;;;0.09;100.00
14253;BME280;7210;51.502;10.722;2023-01-28T01:11:20;100683.13;;;0.01;100.00
14253;BME280;7210;51.502;10.722;2023-01-28T01:13:55;100695.44;;;-0.01;100.00
14253;BME280;7210;51.502;10.722;2023-01-28T01:16:33;100697.09;;;0.00;100.00
14253;BME280;7210;51.502;10.722;2023-01-28T01:19:07;100687.22;;;-0.06;100.00
14253;BME280;7210;51.502;10.722;2023-01-28T01:21:37;100699.53;;;-0.08;100.00
14253;BME280;7210;51.502;10.722;2023-01-28T01:24:12;100696.25;;;-0.09;100.00
14253;BME280;7210;51.502;10.722;2023-01-28T01:26:43;100698.16;;;-0.11;100.00
14253;BME280;7210;51.502;10.722;2023-01-28T01:29:19;100705.97;;;-0.11;100.00
14253;BME280;7210;51.502;10.722;2023-01-28T01:32:01;100719.13;;;-0.03;100.00
14253;BME280;7210;51.502;10.722;2023-01-28T01:34:31;100735.44;;;0.17;100.00
14253;BME280;7210;51.502;10.722;2023-01-28T01:37:04;100736.03;;;0.30;100.00
14253;BME280;7210;51.502;10.722;2023-01-28T01:39:38;100731.81;;;0.39;100.00
14253;BME280;7210;51.502;10.722;2023-01-28T01:42:15;100724.28;;;0.45;100.00
14253;BME280;7210;51.502;10.722;2023-01-28T01:45:07;100725.13;;;0.55;100.00
14253;BME280;7210;51.502;10.722;2023-01-28T01:48:04;100718.00;;;0.57;100.00
14253;BME280;7210;51.502;10.722;2023-01-28T01:50:49;100700.50;;;0.59;100.00
14253;BME280;7210;51.502;10.722;2023-01-28T01:53:28;100696.38;;;0.57;100.00
14253;BME280;7210;51.502;10.722;2023-01-28T01:56:15;100699.78;;;0.57;100.00
14253;BME280;7210;51.502;10.722;2023-01-28T01:59:11;100700.34;;;0.61;100.00
14253;BME280;7210;51.502;10.722;2023-01-28T02:01:58;100695.84;;;0.63;100.00
14253;BME280;7210;51.502;10.722;2023-01-28T02:04:35;100696.41;;;0.66;100.00
14253;BME280;7210;51.502;10.722;2023-01-28T02:07:15;100697.75;;;0.70;100.00
14253;BME280;7210;51.502;10.722;2023-01-28T02:09:51;100702.53;;;0.75;100.00
14253;BME280;7210;51.502;10.722;2023-01-28T02:12:37;100699.94;;;0.84;100.00
14253;BME280;7210;51.502;10.722;2023-01-28T02:15:20;100686.66;;;0.87;100.00
14253;BME280;7210;51.502;10.722;2023-01-28T02:17:53;100682.41;;;0.86;100.00
14253;BME280;7210;51.502;10.722;2023-01-28T02:20:37;100682.41;;;0.86;99.98
14253;BME280;7210;51.502;10.722;2023-01-28T02:23:30;100677.31;;;0.85;100.00
14253;BME280;7210;51.502;10.722;2023-01-28T02:26:45;100668.72;;;0.84;99.54
14253;BME280;7210;51.502;10.722;2023-01-28T02:29:31;100676.94;;;0.89;99.17
14253;BME280;7210;51.502;10.722;2023-01-28T02:32:12;100678.97;;;0.95;99.18
14253;BME280;7210;51.502;10.722;2023-01-28T02:34:50;100677.06;;;0.97;99.01
14253;BME280;7210;51.502;10.722;2023-01-28T02:37:34;100679.66;;;0.97;98.88
14253;BME280;7210;51.502;10.722;2023-01-28T02:40:37;100687.75;;;1.04;98.90
14253;BME280;7210;51.502;10.722;2023-01-28T02:43:38;100675.25;;;1.07;97.76
14253;BME280;7210;51.502;10.722;2023-01-28T02:46:36;100662.38;;;1.06;97.55
14253;BME280;7210;51.502;10.722;2023-01-28T02:49:40;100667.88;;;1.12;97.38
14253;BME280;7210;51.502;10.722;2023-01-28T02:52:44;100664.00;;;1.16;97.05
14253;BME280;7210;51.502;10.722;2023-01-28T02:56:05;100648.94;;;1.10;97.21
14253;BME280;7210;51.502;10.722;2023-01-28T02:58:50;100665.94;;;1.14;97.09
14253;BME280;7210;51.502;10.722;2023-01-28T03:01:40;100652.25;;;1.12;96.67
14253;BME280;7210;51.502;10.722;2023-01-28T03:04:23;100661.53;;;1.15;96.29
14253;BME280;7210;51.502;10.722;2023-01-28T03:07:02;100656.63;;;1.12;96.59
14253;BME280;7210;51.502;10.722;2023-01-28T03:09:35;100652.25;;;1.12;95.88
14253;BME280;7210;51.502;10.722;2023-01-28T03:15:12;100637.66;;;1.19;95.56
14253;BME280;7210;51.502;10.722;2023-01-28T03:18:12;100644.81;;;1.17;95.67
14253;BME280;7210;51.502;10.722;2023-01-28T03:21:06;100636.31;;;1.15;95.45
14253;BME280;7210;51.502;10.722;2023-01-28T03:24:02;100627.13;;;1.11;95.30
14253;BME280;7210;51.502;10.722;2023-01-28T03:27:00;100631.44;;;1.03;95.83
14253;BME280;7210;51.502;10.722;2023-01-28T03:30:06;100652.91;;;1.14;95.71
14253;BME280;7210;51.502;10.722;2023-01-28T03:32:55;100668.91;;;1.19;95.68
14253;BME280;7210;51.502;10.722;2023-01-28T03:35:48;100668.38;;;1.25;95.48
14253;BME280;7210;51.502;10.722;2023-01-28T03:38:38;100646.19;;;1.21;94.42
14253;BME280;7210;51.502;10.722;2023-01-28T03:41:22;100632.19;;;1.22;94.38
14253;BME280;7210;51.502;10.722;2023-01-28T03:43:53;100632.19;;;1.22;94.65
14253;BME280;7210;51.502;10.722;2023-01-28T03:46:24;100636.03;;;1.18;94.55
14253;BME280;7210;51.502;10.722;2023-01-28T03:49:00;100642.75;;;1.21;94.15
14253;BME280;7210;51.502;10.722;2023-01-28T03:51:32;100640.28;;;1.19;94.91
14253;BME280;7210;51.502;10.722;2023-01-28T03:54:14;100644.38;;;1.22;94.60
14253;BME280;7210;51.502;10.722;2023-01-28T03:56:50;100627.56;;;1.16;94.06
14253;BME280;7210;51.502;10.722;2023-01-28T03:59:19;100622.63;;;1.13;93.87
14253;BME280;7210;51.502;10.722;2023-01-28T04:01:54;100619.06;;;1.14;94.26
14253;BME280;7210;51.502;10.722;2023-01-28T04:04:37;100621.94;;;1.11;94.23
14253;BME280;7210;51.502;10.722;2023-01-28T04:07:11;100611.41;;;1.03;94.27
14253;BME280;7210;51.502;10.722;2023-01-28T04:09:59;100636.31;;;1.15;93.70
14253;BME280;7210;51.502;10.722;2023-01-28T04:12:40;100625.91;;;1.15;93.20
14253;BME280;7210;51.502;10.722;2023-01-28T04:15:11;100616.16;;;1.17;93.18
14253;BME280;7210;51.502;10.722;2023-01-28T04:17:44;100614.66;;;1.15;92.93
14253;BME280;7210;51.502;10.722;2023-01-28T04:20:32;100596.88;;;1.10;92.87
14253;BME280;7210;51.502;10.722;2023-01-28T04:23:07;100602.91;;;1.11;92.53
14253;BME280;7210;51.502;10.722;2023-01-28T04:25:42;100610.84;;;1.09;92.96
14253;BME280;7210;51.502;10.722;2023-01-28T04:28:24;100616.06;;;1.09;92.69
14253;BME280;7210;51.502;10.722;2023-01-28T04:31:05;100614.53;;;1.16;92.52
14253;BME280;7210;51.502;10.722;2023-01-28T04:34:08;100611.94;;;1.16;92.39
14253;BME280;7210;51.502;10.722;2023-01-28T04:36:59;100613.56;;;1.17;92.02
14253;BME280;7210;51.502;10.722;2023-01-28T04:40:10;100610.00;;;1.18;92.01
14253;BME280;7210;51.502;10.722;2023-01-28T04:42:52;100598.25;;;1.14;91.81
14253;BME280;7210;51.502;10.722;2023-01-28T04:45:43;100591.41;;;1.13;91.89
14253;BME280;7210;51.502;10.722;2023-01-28T04:48:36;100596.06;;;1.10;91.59
14253;BME280;7210;51.502;10.722;2023-01-28T04:51:30;100586.75;;;1.07;91.28
14253;BME280;7210;51.502;10.722;2023-01-28T04:54:16;100573.50;;;1.01;91.47
14253;BME280;7210;51.502;10.722;2023-01-28T04:56:52;100573.06;;;1.05;90.69
14253;BME280;7210;51.502;10.722;2023-01-28T04:59:29;100579.06;;;1.06;90.82
14253;BME280;7210;51.502;10.722;2023-01-28T05:02:03;100579.91;;;1.06;90.87
14253;BME280;7210;51.502;10.722;2023-01-28T05:04:34;100568.38;;;1.09;90.34
14253;BME280;7210;51.502;10.722;2023-01-28T05:07:13;100563.72;;;1.12;89.67
14253;BME280;7210;51.502;10.722;2023-01-28T05:09:42;100557.56;;;1.13;90.00
14253;BME280;7210;51.502;10.722;2023-01-28T05:12:12;100562.88;;;1.12;90.07
14253;BME280;7210;51.502;10.722;2023-01-28T05:14:49;100562.34;;;1.08;90.04
14253;BME280;7210;51.502;10.722;2023-01-28T05:17:28;100575.38;;;1.08;89.78
14253;BME280;7210;51.502;10.722;2023-01-28T05:20:00;100567.84;;;1.05;90.16
14253;BME280;7210;51.502;10.722;2023-01-28T05:22:30;100565.81;;;0.99;89.52
14253;BME280;7210;51.502;10.722;2023-01-28T05:25:36;100563.47;;;0.96;89.44
14253;BME280;7210;51.502;10.722;2023-01-28T05:28:07;100573.09;;;0.96;89.40
14253;BME280;7210;51.502;10.722;2023-01-28T05:30:37;100593.47;;;1.00;90.18
14253;BME280;7210;51.502;10.722;2023-01-28T05:33:29;100598.56;;;1.02;89.97
14253;BME280;7210;51.502;10.722;2023-01-28T05:35:57;100594.16;;;1.02;89.77
14253;BME280;7210;51.502;10.722;2023-01-28T05:38:25;100589.25;;;0.99;89.45
14253;BME280;7210;51.502;10.722;2023-01-28T05:40:53;100588.94;;;1.02;89.29
14253;BME280;7210;51.502;10.722;2023-01-28T05:43:23;100585.00;;;0.98;89.36
14253;BME280;7210;51.502;10.722;2023-01-28T05:46:12;100565.81;;;0.99;89.03
14253;BME280;7210;51.502;10.722;2023-01-28T05:49:00;100563.75;;;1.03;88.65
14253;BME280;7210;51.502;10.722;2023-01-28T05:51:49;100552.13;;;0.97;88.79
14253;BME280;7210;51.502;10.722;2023-01-28T05:54:22;100555.00;;;0.94;88.06
14253;BME280;7210;51.502;10.722;2023-01-28T05:56:51;100558.44;;;0.95;88.65
14253;BME280;7210;51.502;10.722;2023-01-28T05:59:23;100549.91;;;0.93;87.96
14253;BME280;7210;51.502;10.722;2023-01-28T06:01:56;100555.28;;;0.91;88.30
14253;BME280;7210;51.502;10.722;2023-01-28T06:04:24;100555.13;;;0.93;88.16
14253;BME280;7210;51.502;10.722;2023-01-28T06:06:56;100572.00;;;0.98;88.11
14253;BME280;7210;51.502;10.722;2023-01-28T06:09:31;100548.16;;;0.93;87.37
14253;BME280;7210;51.502;10.722;2023-01-28T06:12:00;100560.31;;;1.02;88.01
14253;BME280;7210;51.502;10.722;2023-01-28T06:14:43;100552.25;;;0.96;87.44
14253;BME280;7210;51.502;10.722;2023-01-28T06:17:31;100539.94;;;0.88;87.69
14253;BME280;7210;51.502;10.722;2023-01-28T06:20:07;100542.41;;;0.90;87.26
14253;BME280;7210;51.502;10.722;2023-01-28T06:22:40;100547.19;;;0.94;86.70
14253;BME280;7210;51.502;10.722;2023-01-28T06:25:09;100519.13;;;0.88;86.34
14253;BME280;7210;51.502;10.722;2023-01-28T06:27:37;100519.72;;;0.82;86.47
14253;BME280;7210;51.502;10.722;2023-01-28T06:30:12;100533.41;;;0.84;86.72
14253;BME280;7210;51.502;10.722;2023-01-28T06:32:41;100552.28;;;0.86;86.27
14253;BME280;7210;51.502;10.722;2023-01-28T06:35:12;100567.34;;;0.92;86.93
14253;BME280;7210;51.502;10.722;2023-01-28T06:37:48;100557.91;;;0.91;86.71
14253;BME280;7210;51.502;10.722;2023-01-28T06:40:21;100542.16;;;0.83;86.00
14253;BME280;7210;51.502;10.722;2023-01-28T06:42:52;100521.34;;;0.83;85.99
14253;BME280;7210;51.502;10.722;2023-01-28T06:45:25;100525.19;;;0.79;85.74
14253;BME280;7210;51.502;10.722;2023-01-28T06:47:52;100507.94;;;0.78;85.85
14253;BME280;7210;51.502;10.722;2023-01-28T06:50:23;100527.13;;;0.77;86.02
14253;BME280;7210;51.502;10.722;2023-01-28T06:52:54;100540.78;;;0.79;86.01
14253;BME280;7210;51.502;10.722;2023-01-28T06:55:23;100542.44;;;0.80;86.29
14253;BME280;7210;51.502;10.722;2023-01-28T06:58:11;100536.69;;;0.77;85.49
14253;BME280;7210;51.502;10.722;2023-01-28T07:00:40;100553.97;;;0.78;86.02
14253;BME280;7210;51.502;10.722;2023-01-28T07:03:07;100561.91;;;0.76;85.54
14253;BME280;7210;51.502;10.722;2023-01-28T07:05:34;100572.31;;;0.76;85.97
14253;BME280;7210;51.502;10.722;2023-01-28T07:08:02;100602.44;;;0.79;86.38
14253;BME280;7210;51.502;10.722;2023-01-28T07:10:34;100618.19;;;0.87;86.78
14253;BME280;7210;51.502;10.722;2023-01-28T07:13:06;100619.28;;;0.84;86.36
14253;BME280;7210;51.502;10.722;2023-01-28T07:15:33;100616.00;;;0.82;86.71
14253;BME280;7210;51.502;10.722;2023-01-28T07:18:02;100614.47;;;0.80;86.84
14253;BME280;7210;51.502;10.722;2023-01-28T07:20:32;100608.75;;;0.76;86.08
14253;BME280;7210;51.502;10.722;2023-01-28T07:23:05;100612.56;;;0.82;86.04
14253;BME280;7210;51.502;10.722;2023-01-28T07:25:40;100610.38;;;0.77;86.10
14253;BME280;7210;51.502;10.722;2023-01-28T07:28:13;100622.84;;;0.83;86.01
14253;BME280;7210;51.502;10.722;2023-01-28T07:30:49;100604.50;;;0.75;86.18
14253;BME280;7210;51.502;10.722;2023-01-28T07:33:33;100601.06;;;0.84;85.75
14253;BME280;7210;51.502;10.722;2023-01-28T07:36:05;100600.75;;;0.87;85.37
14253;BME280;7210;51.502;10.722;2023-01-28T07:38:35;100605.97;;;0.87;85.69
14253;BME280;7210;51.502;10.722;2023-01-28T07:41:11;100594.22;;;0.83;85.31
14253;BME280;7210;51.502;10.722;2023-01-28T07:43:39;100582.44;;;0.79;84.98
14253;BME280;7210;51.502;10.722;2023-01-28T07:46:08;100582.44;;;0.79;85.14
14253;BME280;7210;51.502;10.722;2023-01-28T07:48:39;100585.03;;;0.79;85.25
14253;BME280;7210;51.502;10.722;2023-01-28T07:51:06;100590.66;;;0.84;84.91
14253;BME280;7210;51.502;10.722;2023-01-28T07:53:34;100611.59;;;0.92;85.31
14253;BME280;7210;51.502;10.722;2023-01-28T07:56:02;100607.88;;;0.95;85.02
14253;BME280;7210;51.502;10.722;2023-01-28T07:58:30;100589.78;;;0.93;85.21
14253;BME280;7210;51.502;10.722;2023-01-28T08:01:00;100602.25;;;0.99;84.83
14253;BME280;7210;51.502;10.722;2023-01-28T08:03:29;100583.91;;;0.91;85.11
14253;BME280;7210;51.502;10.722;2023-01-28T08:05:58;100592.50;;;1.01;84.23
14253;BME280;7210;51.502;10.722;2023-01-28T08:08:27;100588.94;;;1.02;84.37
14253;BME280;7210;51.502;10.722;2023-01-28T08:10:54;100573.19;;;1.04;84.26
14253;BME280;7210;51.502;10.722;2023-01-28T08:13:23;100562.34;;;1.08;83.51
14253;BME280;7210;51.502;10.722;2023-01-28T08:15:54;100544.78;;;1.10;83.55
14253;BME280;7210;51.502;10.722;2023-01-28T08:18:22;100526.56;;;1.10;82.72
14253;BME280;7210;51.502;10.722;2023-01-28T08:20:54;100520.84;;;1.07;82.89
14253;BME280;7210;51.502;10.722;2023-01-28T08:23:23;100539.47;;;1.12;82.61
14253;BME280;7210;51.502;10.722;2023-01-28T08:25:54;100542.50;;;1.07;82.85
14253;BME280;7210;51.502;10.722;2023-01-28T08:28:21;100594.34;;;1.28;83.00
14253;BME280;7210;51.502;10.722;2023-01-28T08:30:48;100581.19;;;1.29;82.91
14253;BME280;7210;51.502;10.722;2023-01-28T08:33:17;100568.84;;;1.31;82.77
14253;BME280;7210;51.502;10.722;2023-01-28T08:35:45;100580.31;;;1.38;82.46
14253;BME280;7210;51.502;10.722;2023-01-28T08:38:17;100511.00;;;1.28;81.01
14253;BME280;7210;51.502;10.722;2023-01-28T08:40:47;100508.94;;;1.31;81.16
14253;BME280;7210;51.502;10.722;2023-01-28T08:43:15;100481.94;;;1.32;80.75
14253;BME280;7210;51.502;10.722;2023-01-28T08:45:42;100478.53;;;1.32;80.67
14253;BME280;7210;51.502;10.722;2023-01-28T08:48:15;100485.50;;;1.31;80.42
14253;BME280;7210;51.502;10.722;2023-01-28T08:50:43;100478.25;;;1.25;80.45
14253;BME280;7210;51.502;10.722;2023-01-28T08:53:13;100530.53;;;1.41;80.95
14253;BME280;7210;51.502;10.722;2023-01-28T08:55:41;100575.00;;;1.57;81.11
14253;BME280;7210;51.502;10.722;2023-01-28T08:58:14;100561.53;;;1.62;80.71
14253;BME280;7210;51.502;10.722;2023-01-28T09:00:42;100563.72;;;1.66;80.91
14253;BME280;7210;51.502;10.722;2023-01-28T09:03:09;100542.06;;;1.66;80.52
14253;BME280;7210;51.502;10.722;2023-01-28T09:05:37;100563.13;;;1.72;80.71
14253;BME280;7210;51.502;10.722;2023-01-28T09:08:13;100566.72;;;1.71;80.87
14253;BME280;7210;51.502;10.722;2023-01-28T09:10:48;100566.78;;;1.79;80.47
14253;BME280;7210;51.502;10.722;2023-01-28T09:13:27;100531.84;;;1.72;80.02
14253;BME280;7210;51.502;10.722;2023-01-28T09:15:55;100546.53;;;1.73;80.33
14253;BME280;7210;51.502;10.722;2023-01-28T09:18:22;100546.25;;;1.76;80.35
14253;BME280;7210;51.502;10.722;2023-01-28T09:20:49;100484.41;;;1.69;79.10
14253;BME280;7210;51.502;10.722;2023-01-28T09:23:17;100452.50;;;1.67;78.56
14253;BME280;7210;51.502;10.722;2023-01-28T09:25:47;100492.03;;;1.80;78.84
14253;BME280;7210;51.502;10.722;2023-01-28T09:28:15;100473.09;;;1.78;78.65
14253;BME280;7210;51.502;10.722;2023-01-28T09:30:43;100515.41;;;1.89;78.88
14253;BME280;7210;51.502;10.722;2023-01-28T09:33:10;100524.38;;;1.87;78.80
14253;BME280;7210;51.502;10.722;2023-01-28T09:35:37;100540.00;;;1.87;79.38
14253;BME280;7210;51.502;10.722;2023-01-28T09:38:05;100556.91;;;2.00;78.81
14253;BME280;7210;51.502;10.722;2023-01-28T09:40:36;100515.66;;;1.96;78.33
14253;BME280;7210;51.502;10.722;2023-01-28T09:43:30;100504.03;;;1.90;78.14
14253;BME280;7210;51.502;10.722;2023-01-28T09:46:04;100519.88;;;1.97;77.94
14253;BME280;7210;51.502;10.722;2023-01-28T09:48:41;100524.00;;;1.99;77.84
14253;BME280;7210;51.502;10.722;2023-01-28T09:51:20;100482.41;;;1.98;77.41
14253;BME280;7210;51.502;10.722;2023-01-28T09:53:52;100496.81;;;2.02;77.50
14253;BME280;7210;51.502;10.722;2023-01-28T09:56:25;100516.53;;;2.04;77.81
14253;BME280;7210;51.502;10.722;2023-01-28T09:58:57;100513.47;;;2.09;77.71
14253;BME280;7210;51.502;10.722;2023-01-28T10:01:39;100475.13;;;2.01;77.39
14253;BME280;7210;51.502;10.722;2023-01-28T10:04:25;100504.84;;;2.08;77.36
14253;BME280;7210;51.502;10.722;2023-01-28T10:07:20;100533.22;;;2.11;77.50
14253;BME280;7210;51.502;10.722;2023-01-28T10:09:58;100491.13;;;2.06;77.24
14253;BME280;7210;51.502;10.722;2023-01-28T10:12:49;100493.13;;;2.12;76.95
14253;BME280;7210;51.502;10.722;2023-01-28T10:15:53;100474.06;;;2.12;76.43
14253;BME280;7210;51.502;10.722;2023-01-28T10:18:33;100517.03;;;2.25;76.87
14253;BME280;7210;51.502;10.722;2023-01-28T10:21:10;100503.53;;;2.30;76.28
14253;BME280;7210;51.502;10.722;2023-01-28T10:23:51;100479.09;;;2.31;76.43
14253;BME280;7210;51.502;10.722;2023-01-28T10:26:24;100414.22;;;2.10;75.61
14253;BME280;7210;51.502;10.722;2023-01-28T10:28:57;100458.75;;;2.17;76.12
14253;BME280;7210;51.502;10.722;2023-01-28T10:31:34;100472.69;;;2.25;76.20
14253;BME280;7210;51.502;10.722;2023-01-28T10:34:05;100378.09;;;2.15;74.99
14253;BME280;7210;51.502;10.722;2023-01-28T10:36:32;100374.03;;;2.21;74.71
14253;BME280;7210;51.502;10.722;2023-01-28T10:39:00;100370.59;;;2.20;74.83
14253;BME280;7210;51.502;10.722;2023-01-28T10:41:27;100376.50;;;2.22;74.33
14253;BME280;7210;51.502;10.722;2023-01-28T10:43:56;100316.84;;;2.27;73.88
14253;BME280;7210;51.502;10.722;2023-01-28T10:46:31;100253.94;;;2.22;73.04
14253;BME280;7210;51.502;10.722;2023-01-28T10:49:11;100186.56;;;2.10;72.53
14253;BME280;7210;51.502;10.722;2023-01-28T10:51:42;100192.91;;;2.07;72.36
14253;BME280;7210;51.502;10.722;2023-01-28T10:54:21;100160.28;;;2.03;72.55
14253;BME280;7210;51.502;10.722;2023-01-28T10:56:51;100109.75;;;1.88;71.96
14253;BME280;7210;51.502;10.722;2023-01-28T10:59:25;100092.94;;;1.83;71.91
14253;BME280;7210;51.502;10.722;2023-01-28T11:01:56;100115.28;;;1.85;72.06
14253;BME280;7210;51.502;10.722;2023-01-28T11:04:27;100144.94;;;1.84;72.30
14253;BME280;7210;51.502;10.722;2023-01-28T11:06:59;100097.66;;;1.79;71.41
14253;BME280;7210;51.502;10.722;2023-01-28T11:09:28;100038.19;;;1.67;71.12
14253;BME280;7210;51.502;10.722;2023-01-28T11:11:57;100039.16;;;1.58;71.30
14253;BME280;7210;51.502;10.722;2023-01-28T11:14:26;100067.00;;;1.65;71.30
14253;BME280;7210;51.502;10.722;2023-01-28T11:16:59;100107.56;;;1.68;71.51
14253;BME280;7210;51.502;10.722;2023-01-28T11:19:35;100101.06;;;1.64;71.33
14253;BME280;7210;51.502;10.722;2023-01-28T11:22:03;100133.13;;;1.64;71.81
14253;BME280;7210;51.502;10.722;2023-01-28T11:24:36;100142.72;;;1.64;72.20
14253;BME280;7210;51.502;10.722;2023-01-28T11:27:14;100182.94;;;1.61;72.77
14253;BME280;7210;51.502;10.722;2023-01-28T11:29:44;100278.78;;;1.75;73.06
14253;BME280;7210;51.502;10.722;2023-01-28T11:32:25;100302.75;;;1.79;73.03
14253;BME280;7210;51.502;10.722;2023-01-28T11:34:55;100250.41;;;1.72;72.85
14253;BME280;7210;51.502;10.722;2023-01-28T11:37:30;100235.38;;;1.66;73.23
14253;BME280;7210;51.502;10.722;2023-01-28T11:40:20;100384.41;;;1.87;73.76
14253;BME280;7210;51.502;10.722;2023-01-28T11:42:50;100384.13;;;1.90;73.93
14253;BME280;7210;51.502;10.722;2023-01-28T11:45:22;100353.84;;;1.97;73.57
14253;BME280;7210;51.502;10.722;2023-01-28T11:48:22;100325.94;;;1.90;72.95
14253;BME280;7210;51.502;10.722;2023-01-28T11:51:02;100328.50;;;2.07;72.92
14253;BME280;7210;51.502;10.722;2023-01-28T11:53:55;100250.56;;;2.04;72.49
14253;BME280;7210;51.502;10.722;2023-01-28T11:56:44;100141.97;;;1.79;72.02
14253;BME280;7210;51.502;10.722;2023-01-28T11:59:35;100227.00;;;1.80;72.89
14253;BME280;7210;51.502;10.722;2023-01-28T12:02:29;100265.34;;;1.88;72.50
14253;BME280;7210;51.502;10.722;2023-01-28T12:05:20;100160.22;;;1.79;71.99
14253;BME280;7210;51.502;10.722;2023-01-28T12:08:12;100127.25;;;1.62;71.85
14253;BME280;7210;51.502;10.722;2023-01-28T12:11:12;100235.09;;;1.69;72.83
14253;BME280;7210;51.502;10.722;2023-01-28T12:14:04;100342.56;;;1.89;73.22
14253;BME280;7210;51.502;10.722;2023-01-28T12:16:54;100365.00;;;2.07;73.08
14253;BME280;7210;51.502;10.722;2023-01-28T12:19:59;100362.97;;;2.19;73.00
14253;BME280;7210;51.502;10.722;2023-01-28T12:23:15;100372.66;;;2.34;72.82
14253;BME280;7210;51.502;10.722;2023-01-28T12:26:07;100368.03;;;2.28;72.97
14253;BME280;7210;51.502;10.722;2023-01-28T12:28:52;100358.13;;;2.32;72.81
14253;BME280;7210;51.502;10.722;2023-01-28T12:31:55;100367.75;;;2.31;72.96
14253;BME280;7210;51.502;10.722;2023-01-28T12:35:03;100406.91;;;2.39;73.23
14253;BME280;7210;51.502;10.722;2023-01-28T12:37:53;100360.06;;;2.30;72.96
14253;BME280;7210;51.502;10.722;2023-01-28T12:40:46;100313.72;;;2.24;72.54
14253;BME280;7210;51.502;10.722;2023-01-28T12:43:37;100323.00;;;2.18;72.84
14253;BME280;7210;51.502;10.722;2023-01-28T12:46:17;100391.78;;;2.17;73.61
14253;BME280;7210;51.502;10.722;2023-01-28T12:48:58;100385.44;;;2.20;73.74
14253;BME280;7210;51.502;10.722;2023-01-28T12:51:40;100424.94;;;2.25;73.52
14253;BME280;7210;51.502;10.722;2023-01-28T12:54:18;100435.38;;;2.25;73.76
14253;BME280;7210;51.502;10.722;2023-01-28T12:56:53;100454.81;;;2.30;73.81
14253;BME280;7210;51.502;10.722;2023-01-28T12:59:29;100420.72;;;2.32;73.29
14253;BME280;7210;51.502;10.722;2023-01-28T13:02:20;100420.22;;;2.28;73.28
14253;BME280;7210;51.502;10.722;2023-01-28T13:04:57;100432.59;;;2.26;74.06
14253;BME280;7210;51.502;10.722;2023-01-28T13:07:36;100435.66;;;2.22;74.13
14253;BME280;7210;51.502;10.722;2023-01-28T13:10:18;100438.28;;;2.22;73.87
14253;BME280;7210;51.502;10.722;2023-01-28T13:12:49;100437.59;;;2.20;74.09
14253;BME280;7210;51.502;10.722;2023-01-28T13:15:39;100502.09;;;2.35;74.35
14253;BME280;7210;51.502;10.722;2023-01-28T13:18:31;100459.00;;;2.23;74.42
14253;BME280;7210;51.502;10.722;2023-01-28T13:21:01;100456.47;;;2.14;74.35
14253;BME280;7210;51.502;10.722;2023-01-28T13:23:40;100496.16;;;2.25;74.84
14253;BME280;7210;51.502;10.722;2023-01-28T13:26:29;100523.16;;;2.16;75.04
14253;BME280;7210;51.502;10.722;2023-01-28T13:29:18;100527.16;;;2.28;74.85
14253;BME280;7210;51.502;10.722;2023-01-28T13:31:49;100521.94;;;2.28;74.80
14253;BME280;7210;51.502;10.722;2023-01-28T13:34:34;100513.50;;;2.34;74.58
14253;BME280;7210;51.502;10.722;2023-01-28T13:37:16;100535.66;;;2.30;75.09
14253;BME280;7210;51.502;10.722;2023-01-28T13:39:49;100557.72;;;2.36;74.66
14253;BME280;7210;51.502;10.722;2023-01-28T13:42:25;100484.69;;;2.18;74.48
14253;BME280;7210;51.502;10.722;2023-01-28T13:44:55;100472.78;;;2.16;74.53
14253;BME280;7210;51.502;10.722;2023-01-28T13:47:36;100498.66;;;2.09;74.83
14253;BME280;7210;51.502;10.722;2023-01-28T13:50:11;100549.91;;;2.18;75.05
14253;BME280;7210;51.502;10.722;2023-01-28T13:52:47;100595.28;;;2.25;75.74
14253;BME280;7210;51.502;10.722;2023-01-28T13:55:19;100635.47;;;2.32;75.71
14253;BME280;7210;51.502;10.722;2023-01-28T13:58:42;100636.19;;;2.42;75.59